sensor_id;sensor_type;location;lat;lon;timestamp;pressure;altitude;pressure_sealevel;temperature;humidity
30182;BME280;16990;49.056;9.240;2022-08-21T00:00:43;98816.13;;;16.42;78.36
30182;BME280;16990;49.056;9.240;2022-08-21T00:03:10;98822.31;;;16.42;78.62
30182;BME280;16990;49.056;9.240;2022-08-21T00:05:41;98825.06;;;16.47;78.46
30182;BME280;16990;49.056;9.240;2022-08-21T00:08:10;98831.25;;;16.48;78.06
30182;BME280;16990;49.056;9.240;2022-08-21T00:10:38;98829.34;;;16.43;77.68
30182;BME280;16990;49.056;9.240;2022-08-21T00:13:06;98827.47;;;16.49;77.92
30182;BME280;16990;49.056;9.240;2022-08-21T00:15:35;98825.56;;;16.44;78.18
30182;BME280;16990;49.056;9.240;2022-08-21T00:18:03;98809.94;;;16.26;78.44
30182;BME280;16990;49.056;9.240;2022-08-21T00:20:31;98821.78;;;16.25;78.66
30182;BME280;16990;49.056;9.240;2022-08-21T00:22:58;98808.28;;;16.09;77.80
30182;BME280;16990;49.056;9.240;2022-08-21T00:25:26;98815.28;;;16.10;76.99
30182;BME280;16990;49.056;9.240;2022-08-21T00:27:53;98817.44;;;16.13;77.95
30182;BME280;16990;49.056;9.240;2022-08-21T00:30:23;98793.72;;;16.00;78.27
30182;BME280;16990;49.056;9.240;2022-08-21T00:32:52;98811.50;;;15.96;78.13
30182;BME280;16990;49.056;9.240;2022-08-21T00:35:22;98818.22;;;15.93;78.62
30182;BME280;16990;49.056;9.240;2022-08-21T00:37:49;98800.13;;;15.73;79.11
30182;BME280;16990;49.056;9.240;2022-08-21T00:40:22;98804.38;;;15.69;79.41
30182;BME280;16990;49.056;9.240;2022-08-21T00:42:50;98802.75;;;15.63;79.89
30182;BME280;16990;49.056;9.240;2022-08-21T00:45:17;98812.97;;;15.56;81.21
30182;BME280;16990;49.056;9.240;2022-08-21T00:47:44;98802.47;;;15.60;80.36
30182;BME280;16990;49.056;9.240;2022-08-21T00:50:11;98811.66;;;15.64;80.77
30182;BME280;16990;49.056;9.240;2022-08-21T00:52:39;98818.91;;;15.63;80.98
30182;BME280;16990;49.056;9.240;2022-08-21T00:55:09;98816.22;;;15.63;81.58
30182;BME280;16990;49.056;9.240;2022-08-21T00:57:40;98804.59;;;15.52;81.12
30182;BME280;16990;49.056;9.240;2022-08-21T01:00:14;98772.97;;;15.27;79.70
30182;BME280;16990;49.056;9.240;2022-08-21T01:02:41;98810.22;;;15.36;80.36
30182;BME280;16990;49.056;9.240;2022-08-21T01:05:08;98798.84;;;15.23;80.26
30182;BME280;16990;49.056;9.240;2022-08-21T01:07:35;98807.44;;;15.20;81.07
30182;BME280;16990;49.056;9.240;2022-08-21T01:10:04;98808.75;;;15.18;81.10
30182;BME280;16990;49.056;9.240;2022-08-21T01:12:31;98813.91;;;15.24;80.84
30182;BME280;16990;49.056;9.240;2022-08-21T01:14:59;98822.00;;;15.24;80.63
30182;BME280;16990;49.056;9.240;2022-08-21T01:17:28;98804.69;;;15.10;81.07
30182;BME280;16990;49.056;9.240;2022-08-21T01:19:57;98797.63;;;14.99;81.06
30182;BME280;16990;49.056;9.240;2022-08-21T01:22:26;98811.66;;;15.06;81.56
30182;BME280;16990;49.056;9.240;2022-08-21T01:24:52;98788.72;;;14.98;80.93
30182;BME280;16990;49.056;9.240;2022-08-21T01:27:19;98785.78;;;14.95;82.20
30182;BME280;16990;49.056;9.240;2022-08-21T01:29:52;98796.03;;;15.03;83.25
30182;BME280;16990;49.056;9.240;2022-08-21T01:32:21;98816.34;;;15.21;83.39
30182;BME280;16990;49.056;9.240;2022-08-21T01:34:50;98796.59;;;15.10;83.58
30182;BME280;16990;49.056;9.240;2022-08-21T01:37:18;98792.03;;;15.10;83.39
30182;BME280;16990;49.056;9.240;2022-08-21T01:39:47;98800.38;;;15.09;83.08
30182;BME280;16990;49.056;9.240;2022-08-21T01:42:14;98819.81;;;15.16;84.31
30182;BME280;16990;49.056;9.240;2022-08-21T01:44:41;98801.44;;;15.08;83.99
30182;BME280;16990;49.056;9.240;2022-08-21T01:47:10;98805.25;;;15.12;84.23
30182;BME280;16990;49.056;9.240;2022-08-21T01:49:38;98817.03;;;15.06;82.78
30182;BME280;16990;49.056;9.240;2022-08-21T01:52:05;98769.25;;;14.76;82.66
30182;BME280;16990;49.056;9.240;2022-08-21T01:54:33;98779.25;;;14.85;82.36
30182;BME280;16990;49.056;9.240;2022-08-21T01:57:01;98794.09;;;14.93;83.19
30182;BME280;16990;49.056;9.240;2022-08-21T01:59:29;98786.78;;;14.83;83.60
30182;BME280;16990;49.056;9.240;2022-08-21T02:01:56;98771.69;;;14.82;83.56
30182;BME280;16990;49.056;9.240;2022-08-21T02:04:23;98786.03;;;14.93;83.41
30182;BME280;16990;49.056;9.240;2022-08-21T02:06:50;98785.75;;;14.89;82.52
30182;BME280;16990;49.056;9.240;2022-08-21T02:09:17;98791.41;;;14.93;82.80
30182;BME280;16990;49.056;9.240;2022-08-21T02:11:44;98785.13;;;14.77;83.04
30182;BME280;16990;49.056;9.240;2022-08-21T02:14:14;98773.16;;;14.58;82.90
30182;BME280;16990;49.056;9.240;2022-08-21T02:16:42;98802.25;;;14.61;82.83
30182;BME280;16990;49.056;9.240;2022-08-21T02:19:10;98790.94;;;14.59;83.16
30182;BME280;16990;49.056;9.240;2022-08-21T02:21:37;98774.16;;;14.52;83.17
30182;BME280;16990;49.056;9.240;2022-08-21T02:24:04;98777.72;;;14.57;83.31
30182;BME280;16990;49.056;9.240;2022-08-21T02:26:31;98792.53;;;14.60;83.09
30182;BME280;16990;49.056;9.240;2022-08-21T02:28:57;98782.81;;;14.54;83.46
30182;BME280;16990;49.056;9.240;2022-08-21T02:31:25;98788.22;;;14.59;84.53
30182;BME280;16990;49.056;9.240;2022-08-21T02:33:52;98781.16;;;14.53;84.42
30182;BME280;16990;49.056;9.240;2022-08-21T02:36:19;98778.00;;;14.56;85.00
30182;BME280;16990;49.056;9.240;2022-08-21T02:38:45;98743.84;;;14.29;85.07
30182;BME280;16990;49.056;9.240;2022-08-21T02:41:14;98780.06;;;14.49;85.37
30182;BME280;16990;49.056;9.240;2022-08-21T02:43:42;98774.88;;;14.37;85.48
30182;BME280;16990;49.056;9.240;2022-08-21T02:46:10;98776.72;;;14.36;86.44
30182;BME280;16990;49.056;9.240;2022-08-21T02:48:40;98787.47;;;14.36;86.52
30182;BME280;16990;49.056;9.240;2022-08-21T02:51:10;98761.97;;;14.07;87.30
30182;BME280;16990;49.056;9.240;2022-08-21T02:53:38;98773.34;;;14.19;87.70
30182;BME280;16990;49.056;9.240;2022-08-21T02:56:09;98791.47;;;14.29;86.95
30182;BME280;16990;49.056;9.240;2022-08-21T02:58:40;98793.59;;;14.26;86.74
30182;BME280;16990;49.056;9.240;2022-08-21T03:01:07;98776.81;;;14.14;86.82
30182;BME280;16990;49.056;9.240;2022-08-21T03:03:35;98782.00;;;14.21;86.76
30182;BME280;16990;49.056;9.240;2022-08-21T03:06:05;98783.31;;;14.18;86.39
30182;BME280;16990;49.056;9.240;2022-08-21T03:08:32;98790.41;;;14.02;87.19
30182;BME280;16990;49.056;9.240;2022-08-21T03:10:59;98797.44;;;14.03;87.89
30182;BME280;16990;49.056;9.240;2022-08-21T03:13:27;98757.94;;;13.77;87.97
30182;BME280;16990;49.056;9.240;2022-08-21T03:15:54;98767.66;;;13.83;88.13
30182;BME280;16990;49.056;9.240;2022-08-21T03:18:22;98772.59;;;13.91;88.49
30182;BME280;16990;49.056;9.240;2022-08-21T03:20:49;98755.88;;;13.84;87.85
30182;BME280;16990;49.056;9.240;2022-08-21T03:23:17;98781.75;;;13.95;88.00
30182;BME280;16990;49.056;9.240;2022-08-21T03:25:45;98782.50;;;13.91;88.44
30182;BME280;16990;49.056;9.240;2022-08-21T03:28:13;98768.81;;;13.92;88.22
30182;BME280;16990;49.056;9.240;2022-08-21T03:30:41;98776.88;;;13.92;87.77
30182;BME280;16990;49.056;9.240;2022-08-21T03:33:08;98778.94;;;13.80;87.44
30182;BME280;16990;49.056;9.240;2022-08-21T03:35:35;98754.09;;;13.68;86.93
30182;BME280;16990;49.056;9.240;2022-08-21T03:38:01;98765.13;;;13.71;86.91
30182;BME280;16990;49.056;9.240;2022-08-21T03:40:29;98773.97;;;13.72;87.15
30182;BME280;16990;49.056;9.240;2022-08-21T03:42:57;98774.59;;;13.79;86.35
30182;BME280;16990;49.056;9.240;2022-08-21T03:45:24;98784.81;;;13.77;86.72
30182;BME280;16990;49.056;9.240;2022-08-21T03:47:53;98797.97;;;13.78;88.36
30182;BME280;16990;49.056;9.240;2022-08-21T03:50:21;98790.66;;;13.74;88.97
30182;BME280;16990;49.056;9.240;2022-08-21T03:52:48;98758.28;;;13.58;89.18
30182;BME280;16990;49.056;9.240;2022-08-21T03:55:14;98789.16;;;13.83;89.22
30182;BME280;16990;49.056;9.240;2022-08-21T03:57:42;98789.16;;;13.83;88.30
30182;BME280;16990;49.056;9.240;2022-08-21T04:00:11;98775.13;;;13.76;88.76
30182;BME280;16990;49.056;9.240;2022-08-21T04:02:39;98793.22;;;13.86;88.39
30182;BME280;16990;49.056;9.240;2022-08-21T04:05:06;98795.56;;;13.77;88.09
30182;BME280;16990;49.056;9.240;2022-08-21T04:07:33;98807.16;;;13.82;88.68
30182;BME280;16990;49.056;9.240;2022-08-21T04:10:00;98812.84;;;13.86;88.61
30182;BME280;16990;49.056;9.240;2022-08-21T04:12:27;98795.19;;;13.68;89.18
30182;BME280;16990;49.056;9.240;2022-08-21T04:14:55;98803.06;;;13.75;89.60
30182;BME280;16990;49.056;9.240;2022-08-21T04:17:21;98806.22;;;13.72;89.84
30182;BME280;16990;49.056;9.240;2022-08-21T04:19:48;98801.22;;;13.80;89.35
30182;BME280;16990;49.056;9.240;2022-08-21T04:22:15;98816.03;;;13.83;89.11
30182;BME280;16990;49.056;9.240;2022-08-21T04:24:42;98808.00;;;13.61;89.33
30182;BME280;16990;49.056;9.240;2022-08-21T04:27:09;98805.56;;;13.59;90.08
30182;BME280;16990;49.056;9.240;2022-08-21T04:29:36;98821.50;;;13.66;90.07
30182;BME280;16990;49.056;9.240;2022-08-21T04:32:05;98818.75;;;13.61;89.91
30182;BME280;16990;49.056;9.240;2022-08-21T04:34:31;98819.88;;;13.65;89.74
30182;BME280;16990;49.056;9.240;2022-08-21T04:36:58;98815.13;;;13.50;90.42
30182;BME280;16990;49.056;9.240;2022-08-21T04:39:25;98823.19;;;13.50;90.95
30182;BME280;16990;49.056;9.240;2022-08-21T04:41:51;98834.06;;;13.60;90.43
30182;BME280;16990;49.056;9.240;2022-08-21T04:44:18;98841.38;;;13.65;90.14
30182;BME280;16990;49.056;9.240;2022-08-21T04:46:44;98842.69;;;13.63;90.35
30182;BME280;16990;49.056;9.240;2022-08-21T04:49:12;98836.75;;;13.60;89.83
30182;BME280;16990;49.056;9.240;2022-08-21T04:51:39;98836.19;;;13.58;90.55
30182;BME280;16990;49.056;9.240;2022-08-21T04:54:09;98844.31;;;13.64;90.58
30182;BME280;16990;49.056;9.240;2022-08-21T04:56:40;98826.44;;;13.52;90.99
30182;BME280;16990;49.056;9.240;2022-08-21T04:59:12;98804.53;;;13.38;90.94
30182;BME280;16990;49.056;9.240;2022-08-21T05:01:40;98830.00;;;13.58;90.49
30182;BME280;16990;49.056;9.240;2022-08-21T05:04:10;98835.69;;;13.61;90.23
30182;BME280;16990;49.056;9.240;2022-08-21T05:06:41;98837.81;;;13.59;90.12
30182;BME280;16990;49.056;9.240;2022-08-21T05:09:12;98825.94;;;13.55;90.52
30182;BME280;16990;49.056;9.240;2022-08-21T05:11:41;98851.91;;;13.72;91.25
30182;BME280;16990;49.056;9.240;2022-08-21T05:14:08;98862.75;;;13.77;90.92
30182;BME280;16990;49.056;9.240;2022-08-21T05:16:35;98841.16;;;13.72;90.95
30182;BME280;16990;49.056;9.240;2022-08-21T05:19:01;98856.06;;;13.79;90.32
30182;BME280;16990;49.056;9.240;2022-08-21T05:21:28;98849.41;;;13.87;91.04
30182;BME280;16990;49.056;9.240;2022-08-21T05:23:56;98848.91;;;13.90;90.89
30182;BME280;16990;49.056;9.240;2022-08-21T05:26:23;98872.16;;;14.01;90.75
30182;BME280;16990;49.056;9.240;2022-08-21T05:28:49;98862.66;;;13.94;91.44
30182;BME280;16990;49.056;9.240;2022-08-21T05:31:17;98873.28;;;14.06;91.16
30182;BME280;16990;49.056;9.240;2022-08-21T05:33:44;98871.63;;;14.04;91.59
30182;BME280;16990;49.056;9.240;2022-08-21T05:36:10;98868.50;;;14.13;91.26
30182;BME280;16990;49.056;9.240;2022-08-21T05:38:37;98876.63;;;14.18;91.56
30182;BME280;16990;49.056;9.240;2022-08-21T05:41:05;98875.91;;;14.28;91.24
30182;BME280;16990;49.056;9.240;2022-08-21T05:43:32;98884.81;;;14.33;91.20
30182;BME280;16990;49.056;9.240;2022-08-21T05:46:01;98883.31;;;14.42;90.65
30182;BME280;16990;49.056;9.240;2022-08-21T05:48:28;98868.31;;;14.52;90.50
30182;BME280;16990;49.056;9.240;2022-08-21T05:50:54;98878.06;;;14.58;89.72
30182;BME280;16990;49.056;9.240;2022-08-21T05:53:22;98873.81;;;14.62;89.82
30182;BME280;16990;49.056;9.240;2022-08-21T05:55:50;98886.75;;;14.65;89.50
30182;BME280;16990;49.056;9.240;2022-08-21T05:58:20;98880.34;;;14.71;88.37
30182;BME280;16990;49.056;9.240;2022-08-21T06:00:49;98879.22;;;14.67;88.97
30182;BME280;16990;49.056;9.240;2022-08-21T06:03:20;98873.34;;;14.70;89.67
30182;BME280;16990;49.056;9.240;2022-08-21T06:05:47;98868.50;;;14.72;90.41
30182;BME280;16990;49.056;9.240;2022-08-21T06:08:14;98868.03;;;14.80;90.54
30182;BME280;16990;49.056;9.240;2022-08-21T06:11:03;98885.06;;;14.91;90.36
30182;BME280;16990;49.056;9.240;2022-08-21T06:13:51;98884.34;;;15.01;90.30
30182;BME280;16990;49.056;9.240;2022-08-21T06:16:38;98877.19;;;15.17;90.02
30182;BME280;16990;49.056;9.240;2022-08-21T06:19:25;98868.91;;;15.28;89.77
30182;BME280;16990;49.056;9.240;2022-08-21T06:22:12;98872.19;;;15.41;89.84
30182;BME280;16990;49.056;9.240;2022-08-21T06:24:59;98874.13;;;15.56;88.99
30182;BME280;16990;49.056;9.240;2022-08-21T06:27:46;98880.41;;;15.66;89.12
30182;BME280;16990;49.056;9.240;2022-08-21T06:30:36;98872.13;;;15.78;88.83
30182;BME280;16990;49.056;9.240;2022-08-21T06:33:23;98873.50;;;15.91;88.42
30182;BME280;16990;49.056;9.240;2022-08-21T06:36:10;98870.84;;;16.06;88.28
30182;BME280;16990;49.056;9.240;2022-08-21T06:38:57;98867.34;;;16.16;87.77
30182;BME280;16990;49.056;9.240;2022-08-21T06:41:44;98865.50;;;16.32;86.07
30182;BME280;16990;49.056;9.240;2022-08-21T06:44:31;98866.06;;;16.54;86.27
30182;BME280;16990;49.056;9.240;2022-08-21T06:47:19;98863.38;;;16.85;84.90
30182;BME280;16990;49.056;9.240;2022-08-21T06:50:07;98857.41;;;17.04;81.87
30182;BME280;16990;49.056;9.240;2022-08-21T06:52:59;98867.66;;;17.12;81.91
30182;BME280;16990;49.056;9.240;2022-08-21T06:55:46;98860.91;;;17.14;81.75
30182;BME280;16990;49.056;9.240;2022-08-21T06:58:33;98855.22;;;17.21;81.35
30182;BME280;16990;49.056;9.240;2022-08-21T07:01:22;98861.66;;;17.46;78.91
30182;BME280;16990;49.056;9.240;2022-08-21T07:04:11;98857.50;;;17.63;78.81
30182;BME280;16990;49.056;9.240;2022-08-21T07:06:58;98870.72;;;17.75;77.45
30182;BME280;16990;49.056;9.240;2022-08-21T07:09:45;98860.13;;;17.89;76.38
30182;BME280;16990;49.056;9.240;2022-08-21T07:12:32;98863.53;;;18.10;73.96
30182;BME280;16990;49.056;9.240;2022-08-21T07:15:19;98851.16;;;18.38;70.87
30182;BME280;16990;49.056;9.240;2022-08-21T07:18:06;98859.81;;;18.40;71.78
30182;BME280;16990;49.056;9.240;2022-08-21T07:20:55;98871.56;;;18.25;71.87
30182;BME280;16990;49.056;9.240;2022-08-21T07:23:45;98852.47;;;18.41;71.21
30182;BME280;16990;49.056;9.240;2022-08-21T07:26:33;98856.09;;;18.65;69.94
30182;BME280;16990;49.056;9.240;2022-08-21T07:29:19;98856.59;;;18.73;69.93
30182;BME280;16990;49.056;9.240;2022-08-21T07:32:06;98861.88;;;18.88;69.77
30182;BME280;16990;49.056;9.240;2022-08-21T07:34:54;98860.72;;;18.99;69.50
30182;BME280;16990;49.056;9.240;2022-08-21T07:37:42;98861.66;;;19.13;67.96
30182;BME280;16990;49.056;9.240;2022-08-21T07:40:29;98856.44;;;19.17;66.97
30182;BME280;16990;49.056;9.240;2022-08-21T07:43:16;98853.81;;;19.36;66.90
30182;BME280;16990;49.056;9.240;2022-08-21T07:46:03;98856.66;;;19.74;65.10
30182;BME280;16990;49.056;9.240;2022-08-21T07:48:50;98851.59;;;19.86;63.04
30182;BME280;16990;49.056;9.240;2022-08-21T07:51:37;98842.81;;;19.94;62.88
30182;BME280;16990;49.056;9.240;2022-08-21T07:54:26;98844.91;;;19.79;62.40
30182;BME280;16990;49.056;9.240;2022-08-21T07:57:13;98843.25;;;20.02;62.25
30182;BME280;16990;49.056;9.240;2022-08-21T08:00:00;98846.69;;;20.07;62.26
30182;BME280;16990;49.056;9.240;2022-08-21T08:02:49;98845.75;;;20.17;62.36
30182;BME280;16990;49.056;9.240;2022-08-21T08:05:36;98838.09;;;19.81;63.13
30182;BME280;16990;49.056;9.240;2022-08-21T08:08:25;98838.56;;;19.88;63.63
30182;BME280;16990;49.056;9.240;2022-08-21T08:11:13;98841.19;;;20.12;62.76
30182;BME280;16990;49.056;9.240;2022-08-21T08:14:01;98846.25;;;20.57;60.94
30182;BME280;16990;49.056;9.240;2022-08-21T08:16:49;98841.97;;;20.51;61.08
30182;BME280;16990;49.056;9.240;2022-08-21T08:19:36;98832.13;;;20.55;61.56
30182;BME280;16990;49.056;9.240;2022-08-21T08:22:23;98832.91;;;20.74;60.30
30182;BME280;16990;49.056;9.240;2022-08-21T08:25:11;98831.38;;;20.68;60.19
30182;BME280;16990;49.056;9.240;2022-08-21T08:28:00;98815.88;;;21.15;59.23
30182;BME280;16990;49.056;9.240;2022-08-21T08:30:47;98816.22;;;20.95;58.54
30182;BME280;16990;49.056;9.240;2022-08-21T08:33:35;98813.63;;;21.03;58.59
30182;BME280;16990;49.056;9.240;2022-08-21T08:36:31;98814.34;;;21.09;59.50
30182;BME280;16990;49.056;9.240;2022-08-21T08:39:19;98814.66;;;21.21;58.41
30182;BME280;16990;49.056;9.240;2022-08-21T08:42:08;98814.28;;;21.42;57.54
30182;BME280;16990;49.056;9.240;2022-08-21T08:45:02;98806.22;;;21.64;56.71
30182;BME280;16990;49.056;9.240;2022-08-21T08:47:53;98804.75;;;21.81;55.92
30182;BME280;16990;49.056;9.240;2022-08-21T08:50:47;98807.69;;;22.07;54.76
30182;BME280;16990;49.056;9.240;2022-08-21T08:53:44;98802.97;;;22.13;54.65
30182;BME280;16990;49.056;9.240;2022-08-21T08:56:33;98801.66;;;22.10;54.62
30182;BME280;16990;49.056;9.240;2022-08-21T08:59:23;98806.53;;;21.99;55.39
30182;BME280;16990;49.056;9.240;2022-08-21T09:02:15;98807.88;;;22.24;54.69
30182;BME280;16990;49.056;9.240;2022-08-21T09:05:03;98803.84;;;22.22;54.85
30182;BME280;16990;49.056;9.240;2022-08-21T09:08:13;98802.59;;;22.05;55.02
30182;BME280;16990;49.056;9.240;2022-08-21T09:11:04;98807.06;;;22.24;54.44
30182;BME280;16990;49.056;9.240;2022-08-21T09:14:08;98803.72;;;22.49;54.20
30182;BME280;16990;49.056;9.240;2022-08-21T09:17:03;98797.41;;;22.63;53.25
30182;BME280;16990;49.056;9.240;2022-08-21T09:20:03;98802.16;;;22.80;52.80
30182;BME280;16990;49.056;9.240;2022-08-21T09:23:07;98807.25;;;23.04;52.24
30182;BME280;16990;49.056;9.240;2022-08-21T09:26:02;98797.13;;;22.73;52.49
30182;BME280;16990;49.056;9.240;2022-08-21T09:28:53;98789.78;;;23.05;51.97
30182;BME280;16990;49.056;9.240;2022-08-21T09:31:40;98791.00;;;23.39;51.19
30182;BME280;16990;49.056;9.240;2022-08-21T09:34:30;98788.53;;;23.68;50.64
30182;BME280;16990;49.056;9.240;2022-08-21T09:37:19;98790.44;;;23.59;49.62
30182;BME280;16990;49.056;9.240;2022-08-21T09:40:17;98782.72;;;23.61;48.82
30182;BME280;16990;49.056;9.240;2022-08-21T09:43:11;98786.41;;;23.56;49.69
30182;BME280;16990;49.056;9.240;2022-08-21T09:46:06;98781.09;;;23.60;48.10
30182;BME280;16990;49.056;9.240;2022-08-21T09:48:57;98774.41;;;23.84;46.67
30182;BME280;16990;49.056;9.240;2022-08-21T09:51:50;98780.38;;;24.03;46.94
30182;BME280;16990;49.056;9.240;2022-08-21T09:54:41;98777.16;;;24.01;46.57
30182;BME280;16990;49.056;9.240;2022-08-21T09:57:30;98768.28;;;23.69;46.15
30182;BME280;16990;49.056;9.240;2022-08-21T10:00:27;98772.34;;;23.81;46.35
30182;BME280;16990;49.056;9.240;2022-08-21T10:03:17;98762.16;;;23.55;47.16
30182;BME280;16990;49.056;9.240;2022-08-21T10:06:07;98761.59;;;23.75;46.88
30182;BME280;16990;49.056;9.240;2022-08-21T10:09:04;98761.09;;;23.91;46.21
30182;BME280;16990;49.056;9.240;2022-08-21T10:12:09;98749.22;;;23.95;46.12
30182;BME280;16990;49.056;9.240;2022-08-21T10:15:04;98761.25;;;24.03;45.52
30182;BME280;16990;49.056;9.240;2022-08-21T10:18:02;98754.19;;;23.93;45.89
30182;BME280;16990;49.056;9.240;2022-08-21T10:20:54;98750.16;;;24.17;44.48
30182;BME280;16990;49.056;9.240;2022-08-21T10:23:48;98747.06;;;24.36;44.16
30182;BME280;16990;49.056;9.240;2022-08-21T10:26:52;98752.13;;;24.81;42.95
30182;BME280;16990;49.056;9.240;2022-08-21T10:29:47;98746.06;;;25.05;42.21
30182;BME280;16990;49.056;9.240;2022-08-21T10:32:57;98741.09;;;24.98;41.87
30182;BME280;16990;49.056;9.240;2022-08-21T10:35:51;98749.22;;;24.86;41.76
30182;BME280;16990;49.056;9.240;2022-08-21T10:39:01;98746.38;;;24.74;41.69
30182;BME280;16990;49.056;9.240;2022-08-21T10:42:05;98737.22;;;24.99;42.92
30182;BME280;16990;49.056;9.240;2022-08-21T10:48:04;98736.16;;;24.92;41.03
30182;BME280;16990;49.056;9.240;2022-08-21T10:50:56;98724.59;;;24.86;41.13
30182;BME280;16990;49.056;9.240;2022-08-21T10:53:53;98736.13;;;25.00;41.46
30182;BME280;16990;49.056;9.240;2022-08-21T10:56:43;98726.25;;;25.08;41.01
30182;BME280;16990;49.056;9.240;2022-08-21T10:59:34;98732.63;;;25.21;40.54
30182;BME280;16990;49.056;9.240;2022-08-21T11:02:29;98729.47;;;25.19;40.10
30182;BME280;16990;49.056;9.240;2022-08-21T11:05:24;98726.28;;;24.99;39.92
30182;BME280;16990;49.056;9.240;2022-08-21T11:08:14;98739.94;;;24.70;41.04
30182;BME280;16990;49.056;9.240;2022-08-21T11:11:05;98725.06;;;24.88;40.61
30182;BME280;16990;49.056;9.240;2022-08-21T11:13:58;98720.13;;;24.81;41.40
30182;BME280;16990;49.056;9.240;2022-08-21T11:16:51;98717.28;;;24.99;40.56
30182;BME280;16990;49.056;9.240;2022-08-21T11:19:50;98725.47;;;25.37;39.77
30182;BME280;16990;49.056;9.240;2022-08-21T11:22:47;98721.16;;;24.98;39.39
30182;BME280;16990;49.056;9.240;2022-08-21T11:25:39;98717.34;;;25.29;39.52
30182;BME280;16990;49.056;9.240;2022-08-21T11:28:30;98710.13;;;25.15;40.24
30182;BME280;16990;49.056;9.240;2022-08-21T11:31:32;98710.81;;;25.63;39.31
30182;BME280;16990;49.056;9.240;2022-08-21T11:34:35;98711.00;;;26.00;38.34
30182;BME280;16990;49.056;9.240;2022-08-21T11:37:35;98701.97;;;25.78;38.14
30182;BME280;16990;49.056;9.240;2022-08-21T11:40:42;98708.66;;;26.10;37.42
30182;BME280;16990;49.056;9.240;2022-08-21T11:43:37;98696.50;;;25.99;37.30
30182;BME280;16990;49.056;9.240;2022-08-21T11:46:33;98699.06;;;26.17;36.53
30182;BME280;16990;49.056;9.240;2022-08-21T11:49:37;98695.03;;;26.02;38.68
30182;BME280;16990;49.056;9.240;2022-08-21T11:52:33;98698.63;;;25.73;37.57
30182;BME280;16990;49.056;9.240;2022-08-21T11:55:26;98700.13;;;25.70;38.76
30182;BME280;16990;49.056;9.240;2022-08-21T11:58:23;98691.84;;;25.58;38.79
30182;BME280;16990;49.056;9.240;2022-08-21T12:01:15;98697.84;;;25.72;38.90
30182;BME280;16990;49.056;9.240;2022-08-21T12:04:07;98692.47;;;25.76;39.22
30182;BME280;16990;49.056;9.240;2022-08-21T12:06:55;98694.91;;;25.77;39.10
30182;BME280;16990;49.056;9.240;2022-08-21T12:09:53;98690.22;;;25.99;38.23
30182;BME280;16990;49.056;9.240;2022-08-21T12:12:42;98685.75;;;26.27;36.82
30182;BME280;16990;49.056;9.240;2022-08-21T12:15:31;98683.22;;;26.22;36.80
30182;BME280;16990;49.056;9.240;2022-08-21T12:18:23;98683.94;;;26.44;37.00
30182;BME280;16990;49.056;9.240;2022-08-21T12:21:23;98682.41;;;26.92;36.63
30182;BME280;16990;49.056;9.240;2022-08-21T12:24:17;98673.47;;;27.07;35.23
30182;BME280;16990;49.056;9.240;2022-08-21T12:27:19;98676.22;;;27.07;34.98
30182;BME280;16990;49.056;9.240;2022-08-21T12:30:22;98669.38;;;27.01;34.20
30182;BME280;16990;49.056;9.240;2022-08-21T12:33:23;98669.63;;;26.96;33.88
30182;BME280;16990;49.056;9.240;2022-08-21T12:36:13;98658.59;;;27.33;32.97
30182;BME280;16990;49.056;9.240;2022-08-21T12:39:04;98656.59;;;27.46;32.16
30182;BME280;16990;49.056;9.240;2022-08-21T12:41:59;98650.34;;;27.73;33.01
30182;BME280;16990;49.056;9.240;2022-08-21T12:44:50;98647.34;;;28.07;32.73
30182;BME280;16990;49.056;9.240;2022-08-21T12:47:45;98640.25;;;28.06;31.14
30182;BME280;16990;49.056;9.240;2022-08-21T12:50:41;98642.66;;;27.79;32.37
30182;BME280;16990;49.056;9.240;2022-08-21T12:53:31;98647.84;;;27.96;31.48
30182;BME280;16990;49.056;9.240;2022-08-21T12:56:25;98647.44;;;27.94;32.49
30182;BME280;16990;49.056;9.240;2022-08-21T12:59:13;98644.28;;;27.68;32.84
30182;BME280;16990;49.056;9.240;2022-08-21T13:02:03;98654.69;;;27.34;32.05
30182;BME280;16990;49.056;9.240;2022-08-21T13:04:56;98646.50;;;27.09;32.64
30182;BME280;16990;49.056;9.240;2022-08-21T13:07:47;98655.19;;;27.11;31.71
30182;BME280;16990;49.056;9.240;2022-08-21T13:10:35;98648.75;;;27.44;31.59
30182;BME280;16990;49.056;9.240;2022-08-21T13:13:25;98639.94;;;27.67;31.04
30182;BME280;16990;49.056;9.240;2022-08-21T13:16:13;98637.84;;;27.76;31.26
30182;BME280;16990;49.056;9.240;2022-08-21T13:19:06;98638.38;;;27.66;30.83
30182;BME280;16990;49.056;9.240;2022-08-21T13:21:54;98633.09;;;27.61;30.25
30182;BME280;16990;49.056;9.240;2022-08-21T13:24:42;98636.16;;;27.71;30.65
30182;BME280;16990;49.056;9.240;2022-08-21T13:27:30;98633.63;;;28.07;31.46
30182;BME280;16990;49.056;9.240;2022-08-21T13:30:19;98639.97;;;28.11;30.82
30182;BME280;16990;49.056;9.240;2022-08-21T13:33:07;98637.16;;;27.79;31.11
30182;BME280;16990;49.056;9.240;2022-08-21T13:36:00;98634.38;;;27.23;31.48
30182;BME280;16990;49.056;9.240;2022-08-21T13:38:48;98630.06;;;27.50;30.83
30182;BME280;16990;49.056;9.240;2022-08-21T13:41:38;98625.63;;;27.45;30.93
30182;BME280;16990;49.056;9.240;2022-08-21T13:44:32;98622.06;;;27.45;31.46
30182;BME280;16990;49.056;9.240;2022-08-21T13:47:20;98617.84;;;27.47;31.39
30182;BME280;16990;49.056;9.240;2022-08-21T13:50:08;98622.75;;;27.70;31.49
30182;BME280;16990;49.056;9.240;2022-08-21T13:53:00;98612.94;;;27.69;31.62
30182;BME280;16990;49.056;9.240;2022-08-21T13:55:48;98613.47;;;27.74;31.23
30182;BME280;16990;49.056;9.240;2022-08-21T13:58:44;98615.34;;;27.70;31.26
30182;BME280;16990;49.056;9.240;2022-08-21T14:01:33;98612.78;;;27.49;30.86
30182;BME280;16990;49.056;9.240;2022-08-21T14:04:23;98623.19;;;27.56;31.11
30182;BME280;16990;49.056;9.240;2022-08-21T14:07:16;98620.19;;;27.61;30.41
30182;BME280;16990;49.056;9.240;2022-08-21T14:10:06;98608.50;;;27.92;30.58
30182;BME280;16990;49.056;9.240;2022-08-21T14:12:55;98620.75;;;28.27;29.33